createdAt,value
2018-09-24T00:00:31.291Z,2.50
2018-09-24T00:05:39.634Z,2.60
2018-09-24T00:10:47.895Z,2.17
2018-09-24T00:15:56.247Z,2.57
2018-09-24T00:21:04.574Z,2.40
2018-09-24T00:26:12.916Z,2.80
2018-09-24T00:31:21.330Z,2.70
2018-09-24T00:36:29.653Z,3.00
2018-09-24T00:41:38.237Z,2.80
2018-09-24T00:46:46.710Z,3.50
2018-09-24T00:51:54.965Z,3.27
2018-09-24T00:57:03.274Z,3.13
2018-09-24T01:02:11.570Z,3.50
2018-09-24T01:07:19.941Z,3.43
2018-09-24T01:12:28.321Z,4.13
2018-09-24T01:17:37.063Z,4.10
2018-09-24T01:22:45.305Z,3.83
2018-09-24T01:27:53.705Z,4.40
2018-09-24T01:33:01.993Z,4.13
2018-09-24T01:38:10.364Z,4.60
2018-09-24T01:43:18.726Z,4.87
2018-09-24T01:48:27.093Z,5.00
2018-09-24T01:53:35.467Z,5.40
2018-09-24T01:58:43.826Z,5.03
2018-09-24T02:03:52.311Z,5.30
2018-09-24T02:09:00.595Z,5.20
2018-09-24T02:14:08.934Z,5.30
2018-09-24T02:19:17.197Z,5.07
2018-09-24T02:24:25.530Z,5.17
2018-09-24T02:29:33.883Z,5.90
2018-09-24T02:34:42.209Z,6.03
2018-09-24T02:39:50.481Z,6.00
2018-09-24T02:44:58.997Z,7.00
2018-09-24T02:50:07.362Z,5.80
2018-09-24T02:55:17.782Z,6.53
2018-09-24T03:00:26.077Z,6.00
2018-09-24T03:05:34.256Z,5.40
2018-09-24T03:10:42.678Z,6.13
2018-09-24T03:15:51.106Z,6.90
2018-09-24T03:20:59.365Z,5.73
2018-09-24T03:26:07.687Z,6.60
2018-09-24T03:31:16.039Z,6.90
2018-09-24T03:36:24.349Z,7.57
2018-09-24T03:41:32.661Z,7.20
2018-09-24T03:46:41.283Z,7.93
2018-09-24T03:51:49.550Z,7.37
2018-09-24T03:56:57.890Z,7.40
2018-09-24T04:02:06.271Z,7.77
2018-09-24T04:07:20.490Z,8.47
2018-09-24T04:12:34.650Z,8.73
2018-09-24T04:17:48.786Z,8.70
2018-09-24T04:23:02.826Z,8.07
2018-09-24T04:28:16.939Z,9.03
2018-09-24T04:33:30.973Z,8.27
2018-09-24T04:38:45.013Z,8.10
2018-09-24T04:44:00.217Z,8.67
2018-09-24T04:49:14.365Z,8.43
2018-09-24T04:54:28.417Z,9.00
2018-09-24T04:59:42.749Z,7.97
2018-09-24T05:04:56.842Z,8.60
2018-09-24T05:10:10.937Z,8.03
2018-09-24T05:15:25.021Z,8.30
2018-09-24T05:20:39.093Z,8.70
2018-09-24T05:25:53.194Z,8.60
2018-09-24T05:31:07.465Z,8.33
2018-09-24T05:36:21.674Z,8.90
2018-09-24T05:41:35.670Z,9.73
2018-09-24T05:46:49.631Z,7.10
2018-09-24T05:52:03.721Z,6.30
2018-09-24T05:57:17.834Z,6.97
2018-09-24T06:02:31.889Z,6.93
2018-09-24T06:07:46.114Z,6.30
2018-09-24T06:13:00.344Z,7.40
2018-09-24T06:18:14.424Z,7.43
2018-09-24T06:23:28.490Z,7.33
2018-09-24T06:28:42.526Z,6.73
2018-09-24T06:33:56.522Z,5.63
2018-09-24T06:39:12.326Z,5.10
2018-09-24T06:44:26.494Z,5.10
2018-09-24T06:49:40.601Z,5.17
2018-09-24T06:54:54.590Z,5.60
2018-09-24T07:00:08.702Z,5.10
2018-09-24T07:05:22.764Z,4.70
2018-09-24T07:10:36.856Z,3.80
2018-09-24T07:15:50.909Z,3.70
2018-09-24T07:21:05.005Z,4.07
2018-09-24T07:26:19.211Z,3.63
2018-09-24T07:31:33.407Z,4.93
2018-09-24T07:36:47.534Z,4.60
2018-09-24T07:42:01.754Z,4.60
2018-09-24T07:47:15.819Z,4.00
2018-09-24T07:52:29.895Z,4.30
2018-09-24T07:57:43.988Z,4.30
2018-09-24T08:02:58.156Z,3.67
2018-09-24T08:08:12.362Z,3.70
2018-09-24T08:13:26.431Z,3.27
2018-09-24T08:18:40.510Z,3.40
2018-09-24T08:23:54.574Z,3.20
2018-09-24T08:29:08.684Z,3.43
2018-09-24T08:34:22.798Z,3.10
2018-09-24T08:39:36.854Z,2.70
2018-09-24T08:44:50.950Z,3.17
2018-09-24T08:50:05.110Z,3.20
2018-09-24T08:55:19.117Z,3.20
2018-09-24T09:00:33.134Z,2.60
2018-09-24T09:05:47.270Z,2.50
2018-09-24T09:11:01.407Z,2.80
2018-09-24T09:16:15.482Z,2.40
2018-09-24T09:21:29.602Z,2.03
2018-09-24T09:26:43.609Z,2.30
2018-09-24T09:31:57.732Z,2.60
2018-09-24T09:37:11.842Z,2.20
2018-09-24T09:42:25.937Z,1.90
2018-09-24T09:47:40.001Z,2.37
2018-09-24T09:52:54.057Z,1.90
2018-09-24T09:58:08.173Z,1.90
2018-09-24T10:03:22.206Z,2.17
2018-09-24T10:08:36.299Z,2.20
2018-09-24T10:13:50.315Z,2.33
2018-09-24T10:19:04.330Z,2.10
2018-09-24T10:24:18.411Z,1.90
2018-09-24T10:29:32.451Z,1.80
2018-09-24T10:34:46.558Z,1.70
2018-09-24T10:40:00.705Z,1.80
2018-09-24T10:45:14.701Z,1.27
2018-09-24T10:50:28.802Z,2.10
2018-09-24T10:55:42.908Z,1.97
2018-09-24T11:00:56.902Z,1.60
2018-09-24T11:06:10.890Z,1.40
2018-09-24T11:11:24.906Z,1.50
2018-09-24T11:16:39.049Z,1.93
2018-09-24T11:21:52.899Z,1.60
2018-09-24T11:27:06.904Z,1.90
2018-09-24T11:32:20.960Z,1.70
2018-09-24T11:37:35.062Z,1.40
2018-09-24T11:42:49.045Z,1.40
2018-09-24T11:48:03.160Z,1.63
2018-09-24T11:53:17.145Z,1.33
2018-09-24T11:58:31.351Z,1.57
2018-09-24T12:03:45.367Z,1.37
2018-09-24T12:08:59.527Z,1.13
2018-09-24T12:14:13.613Z,1.40
2018-09-24T12:19:27.708Z,1.53
2018-09-24T12:24:41.731Z,1.30
2018-09-24T12:29:55.717Z,1.20
2018-09-24T12:35:09.843Z,1.17
2018-09-24T12:40:23.878Z,1.10
2018-09-24T12:45:37.774Z,4.90
2018-09-24T12:50:51.717Z,1.30
2018-09-24T12:56:05.786Z,1.40
2018-09-24T13:01:19.882Z,1.50
2018-09-24T13:06:34.020Z,1.23
2018-09-24T13:11:48.178Z,1.50
2018-09-24T13:17:02.321Z,1.40
2018-09-24T13:22:16.430Z,1.70
2018-09-24T13:27:30.522Z,1.40
2018-09-24T13:32:44.727Z,1.30
2018-09-24T13:37:58.717Z,1.40
2018-09-24T13:43:12.637Z,1.20
2018-09-24T13:48:26.648Z,1.30
2018-09-24T13:53:40.822Z,1.63
2018-09-24T13:58:54.858Z,1.27
2018-09-24T14:04:08.979Z,1.17
2018-09-24T14:09:23.075Z,1.70
2018-09-24T14:14:37.266Z,1.23
2018-09-24T14:19:51.336Z,1.60
2018-09-24T14:25:05.393Z,1.53
2018-09-24T14:30:19.567Z,1.23
2018-09-24T14:35:33.462Z,1.23
2018-09-24T14:40:47.530Z,1.50
2018-09-24T14:46:01.515Z,1.37
2018-09-24T14:51:15.562Z,1.13
2018-09-24T14:56:29.519Z,1.20
2018-09-24T15:01:43.527Z,1.20
2018-09-24T15:06:57.589Z,1.20
2018-09-24T15:12:11.676Z,1.00
2018-09-24T15:17:25.728Z,0.90
2018-09-24T15:22:39.846Z,1.03
2018-09-24T15:27:53.965Z,1.10
2018-09-24T15:33:08.270Z,1.43
2018-09-24T15:38:22.212Z,1.20
2018-09-24T15:43:36.326Z,1.50
2018-09-24T15:48:50.401Z,1.40
2018-09-24T15:54:04.446Z,1.17
2018-09-24T15:59:18.580Z,1.40
2018-09-24T16:04:32.736Z,1.40
2018-09-24T16:09:46.730Z,1.40
2018-09-24T16:15:00.809Z,3.40
2018-09-24T16:20:14.906Z,0.90
2018-09-24T16:25:29.017Z,1.03
2018-09-24T16:30:43.073Z,1.10
2018-09-24T16:35:57.114Z,1.20
2018-09-24T16:41:11.348Z,1.20
2018-09-24T16:46:25.514Z,1.30
2018-09-24T16:51:39.526Z,1.30
2018-09-24T16:56:53.589Z,1.30
2018-09-24T17:02:07.541Z,1.20
2018-09-24T17:07:21.709Z,1.20
2018-09-24T17:12:35.799Z,1.30
2018-09-24T17:17:49.835Z,1.40
2018-09-24T17:23:04.017Z,1.90
2018-09-24T17:28:18.234Z,1.47
2018-09-24T17:33:32.346Z,1.40
2018-09-24T17:38:46.506Z,1.30
2018-09-24T17:44:00.623Z,1.30
2018-09-24T17:49:14.629Z,1.83
2018-09-24T17:54:28.820Z,1.77
2018-09-24T17:59:42.994Z,1.90
2018-09-24T18:04:57.137Z,1.67
2018-09-24T18:10:11.302Z,1.40
2018-09-24T18:15:25.400Z,1.40
2018-09-24T18:20:39.582Z,1.37
2018-09-24T18:25:53.760Z,1.87
2018-09-24T18:31:07.950Z,1.70
2018-09-24T18:36:29.133Z,3.23
2018-09-24T18:41:43.155Z,3.40
2018-09-24T18:46:57.262Z,3.17
2018-09-24T18:52:11.419Z,2.30
2018-09-24T18:57:27.514Z,5.00
2018-09-24T19:02:41.646Z,2.97
2018-09-24T19:07:55.833Z,2.50
2018-09-24T19:13:09.889Z,2.17
2018-09-24T19:18:24.007Z,2.23
2018-09-24T19:23:38.072Z,3.03
2018-09-24T19:28:52.206Z,2.80
2018-09-24T19:34:06.321Z,1.90
2018-09-24T19:39:20.338Z,1.67
2018-09-24T19:44:34.514Z,1.60
2018-09-24T19:49:48.607Z,1.47
2018-09-24T20:00:37.036Z,1.80
2018-09-24T20:05:44.942Z,1.90
2018-09-24T20:10:52.853Z,1.70
2018-09-24T20:16:06.909Z,1.80
2018-09-24T20:21:14.926Z,1.67
2018-09-24T20:26:24.810Z,2.60
2018-09-24T20:31:32.769Z,1.80
2018-09-24T20:36:40.765Z,1.90
2018-09-24T20:41:48.630Z,1.67
2018-09-24T20:46:56.535Z,1.60
2018-09-24T20:52:04.430Z,1.77
2018-09-24T20:57:12.286Z,1.70
2018-09-24T21:02:20.118Z,2.23
2018-09-24T21:07:28.029Z,1.83
2018-09-24T21:12:35.950Z,2.10
2018-09-24T21:17:43.813Z,2.00
2018-09-24T21:22:51.765Z,1.80
2018-09-24T21:27:59.736Z,2.10
2018-09-24T21:33:07.719Z,1.90
2018-09-24T21:38:15.625Z,1.93
2018-09-24T21:43:23.518Z,1.90
2018-09-24T21:48:31.406Z,2.10
2018-09-24T21:53:39.371Z,2.10
2018-09-24T21:58:47.325Z,2.40
2018-09-24T22:03:55.166Z,2.33
2018-09-24T22:09:03.025Z,1.97
2018-09-24T22:14:10.966Z,2.30
2018-09-24T22:19:18.933Z,2.33
2018-09-24T22:24:26.861Z,1.57
2018-09-24T22:29:34.749Z,2.00
2018-09-24T22:34:42.609Z,1.83
2018-09-24T22:39:57.361Z,1.97
2018-09-24T22:45:05.315Z,1.80
2018-09-24T22:50:13.300Z,2.20
2018-09-24T22:55:21.235Z,1.93
2018-09-24T23:00:29.245Z,2.20
2018-09-24T23:05:37.053Z,2.43
2018-09-24T23:10:44.994Z,1.80
2018-09-24T23:15:52.931Z,2.10
2018-09-24T23:21:00.741Z,2.60
2018-09-24T23:26:08.685Z,1.90
2018-09-24T23:31:16.590Z,2.00
2018-09-24T23:36:24.558Z,2.00
2018-09-24T23:41:32.490Z,2.07
2018-09-24T23:46:40.334Z,2.00
2018-09-24T23:51:55.014Z,2.20
2018-09-24T23:57:02.930Z,2.40
